Terminal Aerodrome Forecast
Issued by NWS

Home | Current Version | Previous Version | Graphics & Text | Print | Product List | Glossary Off
Versions: 1 2 3 4 5 6 7 8 9 10 11 12 13 14 15 16 17 18 19 20 21 22 23 24 25 26 27 28

000
FTUS43 KDDC 280520
TAFGCK
TAF
KGCK 280520Z 2806/2906 05013KT P6SM BKN110
     FM280800 22008KT P6SM SCT035
     FM281400 30011KT P6SM SCT150
     FM282100 29007KT P6SM VCSH BKN200
     FM290000 02011KT P6SM RA OVC080
     FM290400 03013KT 6SM RA OVC020=

USA.gov is the U.S. government's official web portal to all federal, state and local government web resources and services.